Decoded Metar for CYCY (CLYDE RIVER in NU, CANADA) (IATA:YCY) | Meteo·Mobile Aviation Weather
aviador You're here:

CYCY Decoded Metar

CLYDE RIVER in NU, CANADA
Report Time2019-07-23 07:00:00
UTC Time2019-07-23 07:31:42
Flight Rules vfr VFR
Wind060° at 03 kt
W.Decomp.*RWY 02: 0.6 kt HW 2.9 kt RCW
Visibility9999 m
Phenomena:N/A
Clouds:N/A
CeilingNone
Temp04°C (ISA -11)
Dew Point04°C (100% RH)
AAT1.6°C
QNH1008 hPa
Density Alt-945 ft
Elevation85 ft
Report Wrong Elevation
Raw Report
CYCY 230700Z AUTO 06003KT 9SM CLR 04/04 A2978 RMK SLP088=

Extra information for CYCY:More info

Metar Taf Metar & Taf Last 4 Metars F.Rules Stats Wind Profile Meteogram Temp Stats Airport Information Weather charts Add Link Nearby VenuesMetar ALERT Operation Metar Decoded Social comments